Time;durP1;ratioP1;P1;durP2;ratioP2;P2;SDS_P1;SDS_P2;PMS_P1;PMS_P2;Temp;Humidity;BMP_temperature;BMP_pressure;BME280_temperature;BME280_humidity;BME280_pressure;Samples;Min_cycle;Max_cycle;Signal;HPM_P1;HPM_P2
2022/05/02 00:01:25;;;;;;;4.68;2.42;;;24.20;98.10;;;;;;4192857;28;20143;-69
2022/05/02 00:03:33;;;;;;;4.28;2.88;;;24.00;98.30;;;;;;4191188;28;20106;-69
2022/05/02 00:05:39;;;;;;;6.30;2.80;;;24.10;98.30;;;;;;4190999;28;20060;-69
2022/05/02 00:07:44;;;;;;;4.28;2.90;;;24.10;98.60;;;;;;4172179;28;20049;-70
2022/05/02 00:09:50;;;;;;;4.82;2.38;;;24.10;98.40;;;;;;4192136;28;20117;-70
2022/05/02 00:11:58;;;;;;;4.18;2.38;;;24.10;98.30;;;;;;4190131;28;20045;-69
2022/05/02 00:14:02;;;;;;;4.03;2.00;;;24.10;98.40;;;;;;4175263;28;20056;-70
2022/05/02 00:16:09;;;;;;;4.80;1.90;;;24.10;98.70;;;;;;4186112;28;20141;-69
2022/05/02 00:18:17;;;;;;;3.20;1.85;;;24.10;98.40;;;;;;4191594;28;20047;-69
2022/05/02 00:20:24;;;;;;;3.35;1.60;;;24.10;98.40;;;;;;4183832;28;20048;-69
2022/05/02 00:22:30;;;;;;;3.45;1.80;;;24.20;98.30;;;;;;4184929;28;20045;-69
2022/05/02 00:24:37;;;;;;;4.65;1.85;;;24.30;98.00;;;;;;4183911;28;20431;-69
2022/05/02 00:26:42;;;;;;;3.10;1.73;;;24.30;98.00;;;;;;4162787;28;20546;-69
2022/05/02 00:28:49;;;;;;;3.03;1.80;;;24.30;97.80;;;;;;4179338;28;20065;-69
2022/05/02 00:30:55;;;;;;;4.45;1.63;;;24.20;98.00;;;;;;4182931;28;20547;-69
2022/05/02 00:33:01;;;;;;;3.33;1.92;;;24.30;98.20;;;;;;4168473;28;20107;-69
2022/05/02 00:35:08;;;;;;;4.10;2.00;;;24.30;98.20;;;;;;4181666;28;20052;-69
2022/05/02 00:37:17;;;;;;;3.40;1.92;;;24.30;98.50;;;;;;4157185;28;20132;-69
2022/05/02 00:39:21;;;;;;;3.08;1.80;;;24.30;98.40;;;;;;4184235;28;20041;-69
2022/05/02 00:41:29;;;;;;;4.85;2.58;;;24.30;97.90;;;;;;4180196;28;20143;-69
2022/05/02 00:43:35;;;;;;;2.88;1.85;;;24.30;97.70;;;;;;4181921;28;20155;-69
2022/05/02 00:45:40;;;;;;;2.25;1.88;;;24.30;97.70;;;;;;4184369;28;20102;-69
2022/05/02 00:47:52;;;;;;;4.07;2.13;;;24.20;97.50;;;;;;4182812;28;20044;-69
2022/05/02 00:49:57;;;;;;;3.28;2.00;;;24.20;97.40;;;;;;4182278;28;20053;-68
2022/05/02 00:52:01;;;;;;;3.30;2.28;;;24.20;97.60;;;;;;4183712;28;20054;-69
2022/05/02 00:54:07;;;;;;;4.25;2.38;;;24.20;97.60;;;;;;4185843;28;20048;-70
2022/05/02 00:56:11;;;;;;;3.85;2.30;;;24.20;97.60;;;;;;4165522;28;20049;-69
2022/05/02 00:58:18;;;;;;;3.13;2.17;;;24.20;97.60;;;;;;4182693;28;20056;-70
2022/05/02 01:00:23;;;;;;;3.95;2.20;;;24.10;97.60;;;;;;4184966;28;20129;-69
2022/05/02 01:02:29;;;;;;;2.80;1.77;;;24.10;97.50;;;;;;4186508;28;20658;-69
2022/05/02 01:04:35;;;;;;;3.00;2.20;;;24.10;97.50;;;;;;4185712;28;20108;-69
2022/05/02 01:08:56;;;;;;;3.38;2.00;;;24.10;97.70;;;;;;4182170;28;20391;-70
2022/05/02 01:11:01;;;;;;;3.33;2.20;;;24.10;97.90;;;;;;4190452;28;20052;-69
2022/05/02 01:13:06;;;;;;;2.53;1.92;;;24.20;97.70;;;;;;4188615;28;20102;-69
2022/05/02 01:15:11;;;;;;;3.38;1.98;;;24.30;97.70;;;;;;4169310;28;20047;-69
2022/05/02 01:17:16;;;;;;;2.13;1.83;;;24.30;97.70;;;;;;4188666;28;20075;-69
2022/05/02 01:19:20;;;;;;;4.15;1.88;;;24.30;97.80;;;;;;4165126;28;20068;-69
2022/05/02 01:21:29;;;;;;;2.75;2.05;;;24.30;97.70;;;;;;4173641;28;20044;-72
2022/05/02 01:23:34;;;;;;;5.63;2.33;;;24.30;97.70;;;;;;4181259;28;20068;-68
2022/05/02 01:25:41;;;;;;;3.88;1.42;;;24.30;97.60;;;;;;4182340;28;20045;-68
2022/05/02 01:27:47;;;;;;;1.77;1.50;;;24.30;97.60;;;;;;4187712;28;20106;-69
2022/05/02 01:29:52;;;;;;;2.22;1.60;;;24.30;97.70;;;;;;4184762;28;20050;-69
2022/05/02 01:31:58;;;;;;;7.90;1.75;;;24.20;97.80;;;;;;4184890;28;20106;-69
2022/05/02 01:34:06;;;;;;;3.80;2.03;;;24.20;97.80;;;;;;4186550;28;20120;-69
2022/05/02 01:36:12;;;;;;;2.22;1.70;;;24.20;98.10;;;;;;4184022;28;20094;-70
2022/05/02 01:38:18;;;;;;;4.47;1.73;;;24.20;98.10;;;;;;4187256;28;20135;-68
2022/05/02 01:40:26;;;;;;;2.05;1.70;;;24.30;98.00;;;;;;4187835;28;20041;-69
2022/05/02 01:42:30;;;;;;;2.30;1.55;;;24.30;98.00;;;;;;4188416;28;20042;-69
2022/05/02 01:44:35;;;;;;;2.75;1.40;;;24.20;98.20;;;;;;4191745;28;20044;-68
2022/05/02 01:46:40;;;;;;;3.33;1.65;;;24.20;98.20;;;;;;4184323;28;20049;-69
2022/05/02 01:48:44;;;;;;;3.83;1.83;;;24.20;98.10;;;;;;4189810;28;20049;-69
2022/05/02 01:50:49;;;;;;;4.82;2.03;;;24.20;98.20;;;;;;4191045;28;20048;-69
2022/05/02 01:53:01;;;;;;;2.70;1.63;;;24.20;98.20;;;;;;4186718;28;20041;-68
2022/05/02 01:55:06;;;;;;;5.60;1.80;;;24.20;98.40;;;;;;4185397;28;20123;-70
2022/05/02 01:57:14;;;;;;;3.08;1.80;;;24.20;98.30;;;;;;4186929;28;20045;-69
2022/05/02 01:59:21;;;;;;;3.83;2.05;;;24.20;98.40;;;;;;4190053;28;20079;-69
2022/05/02 02:01:27;;;;;;;3.88;2.05;;;24.20;98.30;;;;;;4185984;28;21454;-69
2022/05/02 02:03:35;;;;;;;2.70;1.95;;;24.20;98.40;;;;;;4186627;28;20048;-69
2022/05/02 02:05:48;;;;;;;3.92;1.90;;;24.20;98.40;;;;;;4192122;28;20108;-69
2022/05/02 02:07:54;;;;;;;4.68;1.85;;;24.30;98.50;;;;;;4188546;28;20090;-69
2022/05/02 02:10:01;;;;;;;2.33;1.73;;;24.20;98.30;;;;;;4191204;28;20040;-69
2022/05/02 02:12:08;;;;;;;2.72;2.30;;;24.20;98.20;;;;;;4177363;28;20061;-69
2022/05/02 02:14:12;;;;;;;3.03;2.25;;;24.20;98.10;;;;;;4188984;28;20535;-69
2022/05/02 02:16:19;;;;;;;5.50;2.15;;;24.20;98.40;;;;;;4166712;28;20084;-69
2022/05/02 02:18:26;;;;;;;4.10;2.10;;;24.20;98.50;;;;;;4191233;28;20456;-69
2022/05/02 02:20:31;;;;;;;4.95;2.20;;;24.20;98.60;;;;;;4191996;28;20143;-66
2022/05/02 02:22:38;;;;;;;5.70;2.40;;;24.10;98.50;;;;;;4192756;28;20056;-69
2022/05/02 02:24:46;;;;;;;3.00;2.50;;;24.10;98.60;;;;;;4180797;28;20131;-69
2022/05/02 02:26:51;;;;;;;3.88;2.38;;;24.10;98.70;;;;;;4165333;28;20199;-69
2022/05/02 02:28:55;;;;;;;4.38;2.30;;;24.10;98.40;;;;;;4186062;28;20056;-68
2022/05/02 02:31:06;;;;;;;3.47;2.42;;;24.00;98.30;;;;;;4172730;28;20049;-68
2022/05/02 02:33:11;;;;;;;5.75;2.70;;;24.10;98.30;;;;;;4188862;28;20622;-69
2022/05/02 02:35:20;;;;;;;3.78;2.30;;;24.10;98.20;;;;;;4187248;28;20144;-68
2022/05/02 02:37:27;;;;;;;2.97;2.20;;;24.10;98.10;;;;;;4188654;28;20081;-67
2022/05/02 02:39:32;;;;;;;2.88;2.47;;;24.10;98.10;;;;;;4189627;28;20069;-67
2022/05/02 02:41:42;;;;;;;4.65;2.28;;;24.10;98.40;;;;;;4187520;28;20040;-69
2022/05/02 02:43:51;;;;;;;3.58;2.25;;;24.10;98.60;;;;;;4142661;28;20173;-68
2022/05/02 02:45:56;;;;;;;3.55;2.50;;;24.10;98.30;;;;;;4176143;28;20083;-68
2022/05/02 02:48:07;;;;;;;3.05;2.20;;;24.00;98.30;;;;;;4193637;28;20056;-68
2022/05/02 02:50:14;;;;;;;5.22;2.63;;;24.00;98.20;;;;;;4179662;28;20044;-68
2022/05/02 02:52:18;;;;;;;3.67;2.20;;;24.10;98.30;;;;;;4194665;28;20040;-68
2022/05/02 02:54:25;;;;;;;4.35;2.45;;;24.10;98.40;;;;;;4190505;28;20082;-67
2022/05/02 02:56:32;;;;;;;3.22;2.33;;;24.00;98.60;;;;;;4142779;28;20493;-68
2022/05/02 02:58:36;;;;;;;3.38;2.60;;;24.10;98.70;;;;;;4192513;28;20041;-68
2022/05/02 03:00:45;;;;;;;3.95;2.60;;;24.10;98.90;;;;;;4175879;28;20057;-67
2022/05/02 03:02:55;;;;;;;6.22;2.72;;;24.10;98.80;;;;;;4194409;28;20044;-68
2022/05/02 03:07:17;;;;;;;4.50;2.88;;;24.00;98.80;;;;;;4190411;28;20067;-67
2022/05/02 03:09:24;;;;;;;5.50;3.08;;;24.00;98.60;;;;;;4193814;28;20048;-68
2022/05/02 03:11:29;;;;;;;6.43;2.70;;;24.00;98.50;;;;;;4194113;28;20086;-68
2022/05/02 03:13:37;;;;;;;4.38;2.58;;;24.00;98.40;;;;;;4189955;28;21478;-68
2022/05/02 03:15:43;;;;;;;3.53;2.65;;;24.00;98.30;;;;;;4184897;28;20060;-69
2022/05/02 03:17:48;;;;;;;3.28;2.80;;;24.00;98.50;;;;;;4188389;28;20037;-69
2022/05/02 03:19:54;;;;;;;6.10;3.10;;;24.00;98.50;;;;;;4189083;28;20032;-68
2022/05/02 03:22:01;;;;;;;7.40;3.00;;;24.00;98.00;;;;;;4172543;28;20061;-69
2022/05/02 03:24:06;;;;;;;3.50;3.00;;;23.90;98.40;;;;;;4189200;28;20398;-69
2022/05/02 03:26:12;;;;;;;4.75;2.75;;;24.00;98.40;;;;;;4188476;28;20071;-69
2022/05/02 03:28:19;;;;;;;5.03;3.20;;;24.00;98.70;;;;;;4189716;28;20056;-69
2022/05/02 03:30:24;;;;;;;3.42;2.65;;;24.10;98.70;;;;;;4190505;28;20045;-70
2022/05/02 03:32:31;;;;;;;4.40;3.00;;;24.00;99.40;;;;;;4187584;28;20040;-69
2022/05/02 03:34:37;;;;;;;4.00;2.80;;;23.90;99.50;;;;;;4188566;28;20054;-69
2022/05/02 03:36:42;;;;;;;6.50;3.10;;;24.00;99.40;;;;;;4189238;28;20098;-69
2022/05/02 03:38:48;;;;;;;3.50;2.78;;;24.00;99.40;;;;;;4176852;28;20454;-69
2022/05/02 03:40:58;;;;;;;3.38;2.70;;;24.00;99.00;;;;;;4187204;28;20135;-70
2022/05/02 03:43:02;;;;;;;5.25;2.60;;;24.00;99.20;;;;;;4193125;28;20106;-69
2022/05/02 03:45:09;;;;;;;4.15;2.97;;;24.00;98.90;;;;;;4176000;28;20163;-69
2022/05/02 03:47:15;;;;;;;3.78;2.85;;;24.00;97.80;;;;;;4193013;28;20052;-69
2022/05/02 03:49:20;;;;;;;3.33;3.03;;;24.00;98.60;;;;;;4174115;28;20049;-68
2022/05/02 03:51:25;;;;;;;4.32;2.95;;;24.10;98.20;;;;;;4188758;28;20456;-69
2022/05/02 03:53:32;;;;;;;4.88;3.33;;;23.90;98.50;;;;;;4164130;28;20056;-69
2022/05/02 03:55:39;;;;;;;5.35;3.17;;;23.90;98.70;;;;;;4173389;28;20092;-70
2022/05/02 03:57:46;;;;;;;4.13;3.22;;;23.90;99.00;;;;;;4190348;28;20499;-70
2022/05/02 03:59:53;;;;;;;3.88;3.05;;;23.80;98.90;;;;;;4192368;28;20147;-69
2022/05/02 04:01:59;;;;;;;6.28;3.60;;;24.00;98.90;;;;;;4193358;28;20079;-69
2022/05/02 04:04:06;;;;;;;5.30;3.35;;;24.00;98.30;;;;;;4192216;28;20498;-69
2022/05/02 04:06:13;;;;;;;5.70;3.35;;;23.80;98.90;;;;;;4189258;28;20466;-68
2022/05/02 04:08:18;;;;;;;4.97;3.75;;;23.80;98.90;;;;;;4188609;28;20113;-69
2022/05/02 04:10:30;;;;;;;5.95;3.80;;;23.80;98.80;;;;;;4169307;28;20053;-68
2022/05/02 04:12:37;;;;;;;5.07;4.10;;;23.90;99.50;;;;;;4184179;28;20044;-69
2022/05/02 04:14:43;;;;;;;5.85;3.83;;;23.90;99.30;;;;;;4192530;28;20124;-70
2022/05/02 04:16:51;;;;;;;6.97;3.78;;;23.80;99.10;;;;;;4193808;28;20473;-71
2022/05/02 04:18:58;;;;;;;5.35;3.53;;;23.80;98.90;;;;;;4189675;28;20047;-70
2022/05/02 04:21:02;;;;;;;5.10;3.58;;;23.80;99.10;;;;;;4193495;28;20129;-70
2022/05/02 04:23:08;;;;;;;5.05;3.50;;;23.80;99.10;;;;;;4193662;28;20036;-70
2022/05/02 04:25:15;;;;;;;4.88;3.50;;;23.80;99.20;;;;;;4190782;28;20056;-70
2022/05/02 04:27:19;;;;;;;4.45;3.28;;;23.80;99.00;;;;;;4193585;28;20052;-70
2022/05/02 04:29:26;;;;;;;3.10;2.60;;;23.70;99.10;;;;;;4192144;28;20395;-70
2022/05/02 04:31:31;;;;;;;3.88;3.25;;;23.70;99.10;;;;;;4192693;28;20055;-70
2022/05/02 04:33:35;;;;;;;5.15;3.20;;;23.70;99.50;;;;;;4192173;28;20052;-71
2022/05/02 04:35:42;;;;;;;5.70;3.30;;;23.60;98.70;;;;;;4188453;28;20421;-71
2022/05/02 04:37:48;;;;;;;4.20;2.97;;;23.60;98.80;;;;;;4187109;28;20066;-71
2022/05/02 04:39:53;;;;;;;4.28;3.15;;;23.60;98.90;;;;;;4175461;28;20095;-70
2022/05/02 04:41:58;;;;;;;4.07;3.35;;;23.70;98.80;;;;;;4175463;28;20056;-69
2022/05/02 04:44:02;;;;;;;5.45;3.20;;;23.60;98.60;;;;;;4188028;28;20044;-70
2022/05/02 04:46:08;;;;;;;7.15;3.20;;;23.50;98.80;;;;;;4185684;28;20044;-71
2022/05/02 04:48:13;;;;;;;4.22;3.05;;;23.40;99.30;;;;;;4187676;28;20075;-71
2022/05/02 04:50:20;;;;;;;3.88;2.90;;;23.50;98.90;;;;;;4185117;28;21608;-72
2022/05/02 04:52:24;;;;;;;3.90;3.47;;;23.40;99.00;;;;;;4186221;28;20135;-70
2022/05/02 04:54:32;;;;;;;3.65;3.08;;;23.50;99.70;;;;;;4183668;28;20049;-69
2022/05/02 04:56:38;;;;;;;3.97;3.20;;;23.70;99.90;;;;;;4181471;28;20041;-69
2022/05/02 04:58:43;;;;;;;3.83;3.00;;;23.80;99.60;;;;;;4186461;28;20048;-69
2022/05/02 05:00:49;;;;;;;4.10;3.13;;;23.80;99.20;;;;;;4184456;28;20882;-69
2022/05/02 05:02:58;;;;;;;4.22;3.10;;;23.80;99.60;;;;;;4141534;28;20061;-69
2022/05/02 05:05:04;;;;;;;4.53;3.20;;;23.80;99.20;;;;;;4167724;28;20051;-69
2022/05/02 05:07:12;;;;;;;3.78;3.15;;;23.80;99.30;;;;;;4190150;28;20048;-70
2022/05/02 05:09:18;;;;;;;4.22;3.05;;;23.90;99.70;;;;;;4157044;28;20049;-70
2022/05/02 05:11:47;;;;;;;4.55;3.20;;;23.90;99.40;;;;;;4189913;28;20132;-72
2022/05/02 05:16:52;;;;;;;4.13;2.83;;;23.60;99.70;;;;;;4188509;28;20049;-71
2022/05/02 05:19:21;;;;;;;6.35;2.85;;;23.60;99.90;;;;;;4186241;28;20086;-68
2022/05/02 05:21:58;;;;;;;2.88;2.17;;;23.70;99.10;;;;;;4186820;28;20411;-71
2022/05/02 05:24:36;;;;;;;2.47;2.22;;;23.80;99.50;;;;;;4191330;28;20052;-70
2022/05/02 05:27:13;;;;;;;3.55;2.17;;;23.80;99.00;;;;;;4186618;28;20045;-69
2022/05/02 05:29:48;;;;;;;7.13;2.50;;;24.10;98.80;;;;;;4171105;28;20677;-70
2022/05/02 05:32:19;;;;;;;3.15;2.58;;;24.10;98.70;;;;;;4190438;28;20139;-69
2022/05/02 05:34:46;;;;;;;2.33;2.10;;;24.20;98.20;;;;;;4170464;28;20068;-71
2022/05/02 05:37:10;;;;;;;2.55;2.30;;;24.20;98.20;;;;;;4191898;28;20040;-69
2022/05/02 05:39:42;;;;;;;4.82;2.10;;;24.30;97.80;;;;;;4189271;28;20499;-70
2022/05/02 05:42:13;;;;;;;4.35;2.42;;;24.40;97.60;;;;;;4192217;28;20698;-70
2022/05/02 05:44:50;;;;;;;3.45;2.15;;;24.50;97.30;;;;;;4170612;28;20051;-71
2022/05/02 05:47:22;;;;;;;3.60;2.65;;;24.50;97.10;;;;;;4159565;28;20057;-70
2022/05/02 05:49:59;;;;;;;3.88;2.90;;;24.50;97.80;;;;;;4190328;28;20047;-70
2022/05/02 05:52:19;;;;;;;4.05;2.65;;;24.60;97.20;;;;;;4191118;28;20052;-72
2022/05/02 05:54:56;;;;;;;4.47;2.67;;;24.60;97.00;;;;;;4191703;28;20072;-70
2022/05/02 05:57:33;;;;;;;5.28;2.70;;;24.80;97.70;;;;;;4190247;28;20066;-70
2022/05/02 06:00:09;;;;;;;3.15;2.80;;;24.90;96.70;;;;;;4191128;28;20625;-70
2022/05/02 06:02:28;;;;;;;10.90;2.92;;;25.00;96.00;;;;;;4189686;28;20052;-70
2022/05/02 06:04:36;;;;;;;4.80;3.17;;;24.70;96.30;;;;;;4175092;28;20053;-71
2022/05/02 06:06:41;;;;;;;7.63;3.70;;;24.60;95.60;;;;;;4191250;28;20094;-73
2022/05/02 06:08:48;;;;;;;4.82;3.30;;;24.50;95.80;;;;;;4190440;28;20098;-70
2022/05/02 06:10:54;;;;;;;4.47;2.67;;;24.60;95.70;;;;;;4172372;28;20536;-73
2022/05/02 06:13:00;;;;;;;4.25;2.75;;;24.70;95.80;;;;;;4166447;28;20045;-73
2022/05/02 06:19:47;;;;;;;5.43;3.90;;;24.60;96.00;;;;;;4174182;28;20108;-70
2022/05/02 06:21:54;;;;;;;4.88;2.70;;;24.70;96.20;;;;;;4187624;28;20052;-72
2022/05/02 06:23:59;;;;;;;4.90;3.30;;;24.70;96.20;;;;;;4184916;28;20044;-71
2022/05/02 06:26:10;;;;;;;6.20;3.03;;;24.60;96.10;;;;;;4190607;28;20083;-71
2022/05/02 06:28:17;;;;;;;6.68;3.35;;;24.60;96.10;;;;;;4170622;28;20570;-71
2022/05/02 06:30:23;;;;;;;6.60;3.83;;;24.50;96.00;;;;;;4190678;28;20579;-71
2022/05/02 06:32:30;;;;;;;5.05;3.30;;;24.40;96.30;;;;;;4190449;28;20098;-71
2022/05/02 06:34:36;;;;;;;4.72;3.60;;;24.30;96.90;;;;;;4191183;28;20050;-71
2022/05/02 06:37:13;;;;;;;4.57;3.33;;;24.20;96.90;;;;;;4175367;28;20056;-71
2022/05/02 06:39:51;;;;;;;6.43;3.50;;;24.30;97.10;;;;;;4173602;28;20041;-71
2022/05/02 06:42:21;;;;;;;3.67;3.00;;;24.50;96.60;;;;;;4172600;28;20056;-71
2022/05/02 06:45:06;;;;;;;6.32;2.70;;;24.40;96.20;;;;;;4176312;28;20080;-70
2022/05/02 06:47:45;;;;;;;4.38;2.90;;;24.40;96.10;;;;;;4175949;28;20052;-71
2022/05/02 06:49:56;;;;;;;5.32;3.00;;;24.40;96.40;;;;;;4192467;28;20044;-70
2022/05/02 06:52:01;;;;;;;3.80;2.53;;;24.60;96.30;;;;;;4192818;28;20062;-71
2022/05/02 06:54:29;;;;;;;4.55;2.80;;;24.60;96.10;;;;;;4190980;28;20041;-70
2022/05/02 06:56:46;;;;;;;3.78;2.63;;;24.50;96.30;;;;;;4191337;28;20055;-70
2022/05/02 06:59:28;;;;;;;5.72;2.80;;;24.60;96.50;;;;;;4183372;28;20209;-70
2022/05/02 07:02:04;;;;;;;3.78;2.80;;;24.40;96.30;;;;;;4182077;28;20047;-71
2022/05/02 07:04:43;;;;;;;3.28;2.60;;;24.40;96.70;;;;;;4180243;28;20057;-71
2022/05/02 07:07:20;;;;;;;3.63;2.70;;;24.40;96.70;;;;;;4191604;28;20044;-70
2022/05/02 07:09:47;;;;;;;4.35;2.58;;;24.40;97.10;;;;;;4189589;28;20051;-70
2022/05/02 07:12:11;;;;;;;3.13;2.10;;;24.30;96.90;;;;;;4185710;28;20132;-70
2022/05/02 07:14:42;;;;;;;3.13;2.28;;;24.40;97.20;;;;;;4175837;28;20056;-70
2022/05/02 07:16:50;;;;;;;3.33;2.38;;;24.30;97.30;;;;;;4191225;28;20066;-70
2022/05/02 07:19:22;;;;;;;4.35;2.47;;;24.20;97.30;;;;;;4188866;28;20102;-70
2022/05/02 07:21:45;;;;;;;3.50;2.45;;;24.10;97.90;;;;;;4184442;28;20471;-71
2022/05/02 07:24:14;;;;;;;4.75;2.60;;;24.10;97.80;;;;;;4189929;28;20562;-70
2022/05/02 07:26:20;;;;;;;10.25;2.92;;;24.20;98.00;;;;;;4184154;28;20051;-70
2022/05/02 07:28:47;;;;;;;4.63;2.75;;;24.30;98.00;;;;;;4184129;28;20041;-73
2022/05/02 07:30:57;;;;;;;4.68;2.80;;;24.30;98.20;;;;;;4192352;28;20768;-71
2022/05/02 07:33:06;;;;;;;3.72;2.50;;;24.30;98.10;;;;;;4189624;28;20050;-72
2022/05/02 07:35:11;;;;;;;4.72;2.40;;;24.30;98.50;;;;;;4189107;28;20135;-72
2022/05/02 07:37:19;;;;;;;4.00;2.30;;;24.20;98.80;;;;;;4190402;28;20339;-73
2022/05/02 07:39:23;;;;;;;3.20;2.30;;;24.10;99.10;;;;;;4193487;28;20057;-71
2022/05/02 07:41:28;;;;;;;5.38;2.63;;;24.00;99.20;;;;;;4187649;28;20059;-71
2022/05/02 07:43:37;;;;;;;3.05;2.10;;;24.00;99.50;;;;;;4181720;28;20448;-71
2022/05/02 07:45:41;;;;;;;2.53;2.17;;;24.00;99.40;;;;;;4183361;28;20053;-70
2022/05/02 07:47:48;;;;;;;3.20;2.25;;;24.00;99.80;;;;;;4194647;28;20582;-72
2022/05/02 07:49:56;;;;;;;3.38;2.83;;;24.00;99.90;;;;;;4195256;28;20052;-71
2022/05/02 07:52:02;;;;;;;4.00;2.95;;;24.00;99.80;;;;;;4191948;28;20068;-70
2022/05/02 07:54:07;;;;;;;4.32;3.05;;;23.90;99.60;;;;;;4193914;28;20066;-73
2022/05/02 07:56:16;;;;;;;4.30;3.20;;;24.00;99.50;;;;;;4193263;28;20041;-71
2022/05/02 07:58:20;;;;;;;6.82;3.33;;;23.90;99.40;;;;;;4192332;28;20657;-72
2022/05/02 08:00:25;;;;;;;4.97;3.47;;;23.90;99.10;;;;;;4193173;28;20448;-72
2022/05/02 08:02:32;;;;;;;4.60;3.42;;;23.70;99.30;;;;;;4193266;28;20135;-71
2022/05/02 08:04:37;;;;;;;5.80;3.80;;;23.80;99.70;;;;;;4193318;28;20159;-72
2022/05/02 08:07:20;;;;;;;5.80;3.65;;;23.70;99.90;;;;;;4190575;28;20076;-71
2022/05/02 08:09:43;;;;;;;7.10;3.55;;;23.60;99.90;;;;;;4190790;28;20493;-70
2022/05/02 08:12:22;;;;;;;6.30;3.60;;;23.70;99.60;;;;;;4192325;28;20037;-73
2022/05/02 08:14:54;;;;;;;3.83;3.20;;;23.80;99.60;;;;;;4187879;28;20086;-72
2022/05/02 08:17:02;;;;;;;4.03;2.70;;;23.70;99.60;;;;;;4190085;28;20245;-70
2022/05/02 08:19:39;;;;;;;4.05;2.92;;;23.70;99.70;;;;;;4191212;28;20040;-71
2022/05/02 08:21:48;;;;;;;5.78;2.80;;;23.70;99.90;;;;;;4174833;28;20422;-70
2022/05/02 08:27:15;;;;;;;4.65;3.05;;;23.80;99.80;;;;;;4191594;28;20064;-70
2022/05/02 08:29:34;;;;;;;4.00;3.10;;;24.00;99.90;;;;;;4187155;28;20074;-70
2022/05/02 08:32:10;;;;;;;4.47;3.15;;;24.00;99.70;;;;;;4191579;28;20102;-70
2022/05/02 08:34:29;;;;;;;12.63;3.30;;;24.00;99.80;;;;;;4169390;28;20096;-70
2022/05/02 08:36:51;;;;;;;2.90;2.60;;;24.00;99.80;;;;;;4174194;28;20041;-69
2022/05/02 08:39:01;;;;;;;3.45;2.63;;;24.00;99.70;;;;;;4183243;28;20041;-72
2022/05/02 08:41:38;;;;;;;3.42;2.85;;;23.70;99.90;;;;;;4182973;28;20091;-69
2022/05/02 08:43:58;;;;;;;6.28;3.53;;;23.80;99.90;;;;;;4185951;28;20060;-72
2022/05/02 08:46:32;;;;;;;4.75;3.45;;;23.90;99.90;;;;;;4187443;28;20163;-71
2022/05/02 08:52:01;;;;;;;4.25;2.88;;;24.00;99.90;;;;;;4190894;28;20056;-70
2022/05/02 08:54:23;;;;;;;3.38;2.90;;;24.00;99.90;;;;;;4192475;28;20185;-70
2022/05/02 08:56:48;;;;;;;8.82;2.85;;;24.00;99.90;;;;;;4189977;28;20053;-70
2022/05/02 08:59:32;;;;;;;4.50;3.28;;;24.10;99.90;;;;;;4175601;28;20045;-72
2022/05/02 09:02:03;;;;;;;9.55;3.75;;;24.10;99.90;;;;;;4173597;28;20056;-70
2022/05/02 09:04:40;;;;;;;3.72;3.28;;;24.10;99.90;;;;;;4190605;28;20140;-71
2022/05/02 09:07:11;;;;;;;6.82;3.50;;;24.20;99.90;;;;;;4191821;28;20037;-72
2022/05/02 09:09:47;;;;;;;3.63;3.00;;;24.30;99.90;;;;;;4167974;28;20577;-71
2022/05/02 09:12:17;;;;;;;3.03;2.47;;;24.30;99.90;;;;;;4193992;28;20044;-71
2022/05/02 09:14:45;;;;;;;6.20;2.70;;;24.40;99.50;;;;;;4188590;28;20049;-71
2022/05/02 09:17:22;;;;;;;6.27;3.20;;;24.40;99.20;;;;;;4192434;28;20072;-75
2022/05/02 09:20:01;;;;;;;3.67;2.88;;;24.40;98.90;;;;;;4190475;28;20048;-71
2022/05/02 09:22:30;;;;;;;4.38;3.05;;;24.40;99.10;;;;;;4190563;28;20123;-71
2022/05/02 09:24:59;;;;;;;5.00;3.00;;;24.40;99.00;;;;;;4184124;28;20407;-69
2022/05/02 09:27:37;;;;;;;3.42;2.30;;;24.40;99.00;;;;;;4182604;28;20067;-70
2022/05/02 09:30:06;;;;;;;4.18;2.83;;;24.30;98.90;;;;;;4166231;28;20526;-71
2022/05/02 09:32:18;;;;;;;4.63;3.10;;;24.20;98.70;;;;;;4181327;28;20045;-71
2022/05/02 09:34:56;;;;;;;5.22;2.85;;;24.20;98.60;;;;;;4186114;28;20044;-70
2022/05/02 09:37:06;;;;;;;4.00;3.10;;;24.20;98.60;;;;;;4188129;28;20126;-70
2022/05/02 09:39:15;;;;;;;3.47;3.00;;;24.20;98.40;;;;;;4184148;28;20067;-70
2022/05/02 09:41:32;;;;;;;5.15;3.30;;;24.30;98.50;;;;;;4182549;28;20041;-70
2022/05/02 09:49:36;;;;;;;5.30;3.47;;;24.30;98.70;;;;;;4178359;28;20080;-70
2022/05/02 09:52:02;;;;;;;5.65;3.10;;;24.30;99.10;;;;;;4184299;28;20044;-70
2022/05/02 09:56:57;;;;;;;4.43;3.40;;;24.30;98.80;;;;;;4191960;28;20527;-70
2022/05/02 09:59:07;;;;;;;4.93;3.58;;;24.30;98.90;;;;;;4175106;28;20049;-68
2022/05/02 10:01:21;;;;;;;4.95;3.70;;;24.30;98.90;;;;;;4187476;28;20090;-70
2022/05/02 10:03:26;;;;;;;;;;;24.30;98.70;;;;;;4189496;28;20128;-70
2022/05/02 10:05:40;;;;;;;7.15;4.10;;;24.30;98.60;;;;;;4188253;28;19924;-70
2022/05/02 10:08:10;;;;;;;6.22;4.38;;;24.30;98.90;;;;;;4186299;28;20127;-70
2022/05/02 10:10:47;;;;;;;5.82;4.10;;;24.20;98.70;;;;;;4186821;28;20487;-70
2022/05/02 10:13:14;;;;;;;6.18;3.75;;;24.20;98.80;;;;;;4189856;28;20048;-70
2022/05/02 10:15:44;;;;;;;7.40;4.13;;;24.20;98.70;;;;;;4189060;28;20040;-69
2022/05/02 10:18:14;;;;;;;4.65;3.40;;;24.20;98.70;;;;;;4189654;28;20759;-69
2022/05/02 10:20:19;;;;;;;4.55;3.45;;;24.10;98.40;;;;;;4188735;28;20103;-70
2022/05/02 10:22:56;;;;;;;4.43;3.08;;;24.10;98.50;;;;;;4186336;28;20076;-70
2022/05/02 10:25:22;;;;;;;5.03;3.45;;;24.00;98.30;;;;;;4173677;28;20835;-69
2022/05/02 10:27:40;;;;;;;5.78;3.17;;;24.00;98.50;;;;;;4186166;28;20065;-69
2022/05/02 10:30:12;;;;;;;4.40;3.30;;;24.00;98.50;;;;;;4186704;28;20092;-70
2022/05/02 10:32:40;;;;;;;4.40;3.67;;;24.00;98.50;;;;;;4183308;28;20452;-69
2022/05/02 10:34:47;;;;;;;6.70;3.50;;;24.00;98.50;;;;;;4184651;28;20045;-70
2022/05/02 10:36:51;;;;;;;4.55;2.95;;;24.00;98.50;;;;;;4183981;28;20045;-70
2022/05/02 10:39:05;;;;;;;3.75;3.35;;;24.00;98.50;;;;;;4191763;28;20048;-70
2022/05/02 10:41:21;;;;;;;5.15;3.63;;;24.00;98.50;;;;;;4193572;28;20057;-70
2022/05/02 10:43:26;;;;;;;4.30;3.58;;;24.00;98.40;;;;;;4192549;28;20044;-71
2022/05/02 10:45:33;;;;;;;5.18;3.70;;;24.00;98.50;;;;;;4193889;28;20044;-69
2022/05/02 10:47:52;;;;;;;6.15;4.10;;;24.00;98.50;;;;;;4144071;28;20073;-69
2022/05/02 10:50:25;;;;;;;4.38;3.60;;;24.00;98.70;;;;;;4195081;28;20051;-70
2022/05/02 10:53:01;;;;;;;7.03;4.13;;;24.10;98.60;;;;;;4194826;28;20487;-68
2022/05/02 10:55:07;;;;;;;5.40;3.28;;;24.00;98.70;;;;;;4175837;28;20503;-71
2022/05/02 10:57:33;;;;;;;4.47;3.03;;;24.00;98.70;;;;;;4174733;28;20047;-70
2022/05/02 10:59:41;;;;;;;7.57;2.83;;;24.00;98.80;;;;;;4195673;28;20060;-69
2022/05/02 11:02:25;;;;;;;5.72;2.70;;;24.00;98.80;;;;;;4159227;28;20045;-70
2022/05/02 11:04:44;;;;;;;4.95;2.90;;;24.10;98.80;;;;;;4194441;28;20812;-70
2022/05/02 11:07:16;;;;;;;4.15;2.55;;;24.00;99.00;;;;;;4197274;28;20044;-69
2022/05/02 11:09:25;;;;;;;5.75;2.63;;;24.00;99.00;;;;;;4194669;28;20116;-70
2022/05/02 11:11:50;;;;;;;7.53;2.53;;;24.00;98.90;;;;;;4194593;28;20045;-69
2022/05/02 11:14:28;;;;;;;6.70;2.55;;;24.00;98.70;;;;;;4192077;28;20098;-69
2022/05/02 11:17:05;;;;;;;8.45;2.65;;;24.00;98.70;;;;;;4193185;28;20037;-70
2022/05/02 11:22:08;;;;;;;5.32;2.83;;;24.00;98.40;;;;;;4194551;28;20037;-69
2022/05/02 11:24:38;;;;;;;5.25;3.10;;;24.00;98.50;;;;;;4189875;28;20060;-70
2022/05/02 11:26:48;;;;;;;3.92;2.65;;;24.00;98.60;;;;;;4159939;28;20057;-70
2022/05/02 11:29:07;;;;;;;5.32;3.33;;;23.90;98.80;;;;;;4190280;28;20048;-71
2022/05/02 11:31:55;;;;;;;4.25;2.90;;;23.90;98.80;;;;;;4164711;28;20061;-71
2022/05/02 11:34:21;;;;;;;4.22;3.00;;;23.90;98.80;;;;;;4170405;28;20057;-71
2022/05/02 11:36:29;;;;;;;6.82;3.53;;;23.90;98.70;;;;;;4155756;28;20068;-71
2022/05/02 11:38:56;;;;;;;6.10;3.50;;;23.90;98.90;;;;;;4175332;28;20110;-71
2022/05/02 11:41:11;;;;;;;7.65;4.57;;;23.90;99.20;;;;;;4174794;28;20052;-71
2022/05/02 11:43:20;;;;;;;5.50;4.07;;;23.90;99.20;;;;;;4168714;28;20048;-71
2022/05/02 11:45:42;;;;;;;10.98;5.70;;;23.90;99.00;;;;;;4152917;28;20053;-70
2022/05/02 11:48:18;;;;;;;7.75;5.15;;;23.90;99.00;;;;;;4168296;28;20048;-71
2022/05/02 11:50:26;;;;;;;6.65;4.35;;;23.90;99.00;;;;;;4174094;28;20076;-70
2022/05/02 11:52:33;;;;;;;6.93;4.25;;;23.90;99.40;;;;;;4166238;28;20053;-70
2022/05/02 11:54:39;;;;;;;5.10;3.63;;;23.90;99.30;;;;;;4162412;28;20662;-71
2022/05/02 11:56:55;;;;;;;6.10;4.15;;;23.80;99.20;;;;;;4168735;28;20041;-70
2022/05/02 11:59:06;;;;;;;7.82;4.78;;;23.80;99.20;;;;;;4162973;28;20874;-71
2022/05/02 12:01:11;;;;;;;8.23;4.72;;;23.80;99.10;;;;;;4166172;28;20046;-71
2022/05/02 12:03:23;;;;;;;6.57;4.53;;;23.70;99.30;;;;;;4180629;28;20056;-70
2022/05/02 12:05:34;;;;;;;6.55;4.30;;;23.70;99.50;;;;;;4184328;28;20056;-70
2022/05/02 12:07:38;;;;;;;6.40;4.60;;;23.80;99.40;;;;;;4187123;28;20645;-70
2022/05/02 12:09:49;;;;;;;6.05;4.50;;;23.80;99.20;;;;;;4152276;28;20077;-70